sensor_id;sensor_type;location;lat;lon;timestamp;pressure;altitude;pressure_sealevel;temperature;humidity
37972;BME280;23794;48.234;8.344;2023-04-28T00:01:33;94099.06;;;10.61;63.70
37972;BME280;23794;48.234;8.344;2023-04-28T00:04:03;94104.56;;;10.57;64.21
37972;BME280;23794;48.234;8.344;2023-04-28T00:06:30;94108.91;;;10.55;64.82
37972;BME280;23794;48.234;8.344;2023-04-28T00:08:57;94101.84;;;10.54;65.71
37972;BME280;23794;48.234;8.344;2023-04-28T00:11:24;94101.47;;;10.52;65.82
37972;BME280;23794;48.234;8.344;2023-04-28T00:13:53;94099.16;;;10.50;65.46
37972;BME280;23794;48.234;8.344;2023-04-28T00:16:19;94098.44;;;10.43;66.42
37972;BME280;23794;48.234;8.344;2023-04-28T00:18:46;94097.63;;;10.46;65.85
37972;BME280;23794;48.234;8.344;2023-04-28T00:21:13;94103.56;;;10.37;66.99
37972;BME280;23794;48.234;8.344;2023-04-28T00:23:39;94089.47;;;10.35;67.03
37972;BME280;23794;48.234;8.344;2023-04-28T00:26:06;94089.88;;;10.37;66.94
37972;BME280;23794;48.234;8.344;2023-04-28T00:28:33;94087.19;;;10.30;67.60
37972;BME280;23794;48.234;8.344;2023-04-28T00:31:01;94090.00;;;10.19;67.79
37972;BME280;23794;48.234;8.344;2023-04-28T00:33:28;94088.38;;;10.25;67.69
37972;BME280;23794;48.234;8.344;2023-04-28T00:35:58;94084.50;;;10.22;67.63
37972;BME280;23794;48.234;8.344;2023-04-28T00:38:26;94074.28;;;10.26;67.29
37972;BME280;23794;48.234;8.344;2023-04-28T00:40:52;94070.00;;;10.22;68.21
37972;BME280;23794;48.234;8.344;2023-04-28T00:43:19;94055.91;;;10.27;67.60
37972;BME280;23794;48.234;8.344;2023-04-28T00:45:46;94060.56;;;10.30;66.78
37972;BME280;23794;48.234;8.344;2023-04-28T00:48:12;94061.78;;;10.25;67.79
37972;BME280;23794;48.234;8.344;2023-04-28T00:50:39;94064.50;;;10.25;67.85
37972;BME280;23794;48.234;8.344;2023-04-28T00:53:06;94063.34;;;10.26;67.76
37972;BME280;23794;48.234;8.344;2023-04-28T00:55:34;94054.75;;;10.28;67.17
37972;BME280;23794;48.234;8.344;2023-04-28T00:58:05;94058.72;;;10.20;67.72
37972;BME280;23794;48.234;8.344;2023-04-28T01:00:33;94052.41;;;10.23;67.96
37972;BME280;23794;48.234;8.344;2023-04-28T01:02:59;94046.16;;;10.26;67.72
37972;BME280;23794;48.234;8.344;2023-04-28T01:05:31;94050.47;;;10.23;68.18
37972;BME280;23794;48.234;8.344;2023-04-28T01:07:57;94049.69;;;10.19;69.03
37972;BME280;23794;48.234;8.344;2023-04-28T01:10:24;94048.06;;;10.29;68.09
37972;BME280;23794;48.234;8.344;2023-04-28T01:12:51;94051.97;;;10.32;67.33
37972;BME280;23794;48.234;8.344;2023-04-28T01:15:21;94053.91;;;10.31;67.63
37972;BME280;23794;48.234;8.344;2023-04-28T01:17:51;94049.25;;;10.32;67.87
37972;BME280;23794;48.234;8.344;2023-04-28T01:20:17;94042.28;;;10.20;68.74
37972;BME280;23794;48.234;8.344;2023-04-28T01:22:44;94050.09;;;10.21;69.02
37972;BME280;23794;48.234;8.344;2023-04-28T01:25:11;94056.31;;;10.25;69.09
37972;BME280;23794;48.234;8.344;2023-04-28T01:27:37;94051.59;;;10.30;68.29
37972;BME280;23794;48.234;8.344;2023-04-28T01:30:05;94050.00;;;10.32;68.49
37972;BME280;23794;48.234;8.344;2023-04-28T01:32:32;94049.28;;;10.24;70.52
37972;BME280;23794;48.234;8.344;2023-04-28T01:34:59;94053.94;;;10.28;69.19
37972;BME280;23794;48.234;8.344;2023-04-28T01:37:25;94053.56;;;10.25;69.59
37972;BME280;23794;48.234;8.344;2023-04-28T01:39:52;94052.41;;;10.23;71.01
37972;BME280;23794;48.234;8.344;2023-04-28T01:42:19;94057.13;;;10.22;69.80
37972;BME280;23794;48.234;8.344;2023-04-28T01:44:45;94055.63;;;10.14;71.48
37972;BME280;23794;48.234;8.344;2023-04-28T01:47:12;94059.97;;;10.08;71.42
37972;BME280;23794;48.234;8.344;2023-04-28T01:49:39;94056.44;;;10.07;72.00
37972;BME280;23794;48.234;8.344;2023-04-28T01:52:06;94061.94;;;10.04;71.97
37972;BME280;23794;48.234;8.344;2023-04-28T01:54:33;94063.47;;;10.08;71.24
37972;BME280;23794;48.234;8.344;2023-04-28T01:57:00;94070.50;;;10.09;71.46
37972;BME280;23794;48.234;8.344;2023-04-28T01:59:29;94063.50;;;10.05;71.79
37972;BME280;23794;48.234;8.344;2023-04-28T02:01:56;94068.22;;;10.01;73.52
37972;BME280;23794;48.234;8.344;2023-04-28T02:04:23;94072.94;;;9.93;73.74
37972;BME280;23794;48.234;8.344;2023-04-28T02:06:52;94066.28;;;9.98;74.42
37972;BME280;23794;48.234;8.344;2023-04-28T02:09:18;94074.06;;;9.99;75.55
37972;BME280;23794;48.234;8.344;2023-04-28T02:11:45;94077.66;;;9.92;76.80
37972;BME280;23794;48.234;8.344;2023-04-28T02:14:11;94076.09;;;9.91;75.25
37972;BME280;23794;48.234;8.344;2023-04-28T02:16:38;94080.00;;;9.87;77.11
37972;BME280;23794;48.234;8.344;2023-04-28T02:19:04;94082.00;;;9.83;77.62
37972;BME280;23794;48.234;8.344;2023-04-28T02:21:31;94081.97;;;9.86;77.22
37972;BME280;23794;48.234;8.344;2023-04-28T02:23:58;94080.81;;;9.87;76.21
37972;BME280;23794;48.234;8.344;2023-04-28T02:26:25;94077.25;;;9.90;76.00
37972;BME280;23794;48.234;8.344;2023-04-28T02:28:51;94087.81;;;9.88;76.85
37972;BME280;23794;48.234;8.344;2023-04-28T02:31:18;94073.38;;;9.88;77.30
37972;BME280;23794;48.234;8.344;2023-04-28T02:33:45;94079.59;;;9.92;77.04
37972;BME280;23794;48.234;8.344;2023-04-28T02:36:11;94079.66;;;9.81;78.26
37972;BME280;23794;48.234;8.344;2023-04-28T02:38:38;94087.84;;;9.81;78.04
37972;BME280;23794;48.234;8.344;2023-04-28T02:41:07;94075.00;;;9.78;78.41
37972;BME280;23794;48.234;8.344;2023-04-28T02:43:35;94075.34;;;9.80;77.57
37972;BME280;23794;48.234;8.344;2023-04-28T02:46:03;94069.91;;;9.73;78.75
37972;BME280;23794;48.234;8.344;2023-04-28T02:48:29;94065.69;;;9.61;79.81
37972;BME280;23794;48.234;8.344;2023-04-28T02:50:56;94058.25;;;9.65;78.54
37972;BME280;23794;48.234;8.344;2023-04-28T02:53:23;94064.88;;;9.68;78.93
37972;BME280;23794;48.234;8.344;2023-04-28T02:55:49;94067.19;;;9.69;78.85
37972;BME280;23794;48.234;8.344;2023-04-28T02:58:16;94059.81;;;9.66;79.38
37972;BME280;23794;48.234;8.344;2023-04-28T03:00:44;94060.56;;;9.67;79.02
37972;BME280;23794;48.234;8.344;2023-04-28T03:03:11;94062.56;;;9.59;79.30
37972;BME280;23794;48.234;8.344;2023-04-28T03:05:38;94059.41;;;9.64;78.17
37972;BME280;23794;48.234;8.344;2023-04-28T03:08:05;94052.78;;;9.61;78.37
37972;BME280;23794;48.234;8.344;2023-04-28T03:10:31;94058.69;;;9.56;79.77
37972;BME280;23794;48.234;8.344;2023-04-28T03:12:59;94055.19;;;9.52;79.88
37972;BME280;23794;48.234;8.344;2023-04-28T03:15:26;94055.97;;;9.56;80.36
37972;BME280;23794;48.234;8.344;2023-04-28T03:17:53;94051.72;;;9.44;80.76
37972;BME280;23794;48.234;8.344;2023-04-28T03:20:19;94047.41;;;9.43;80.75
37972;BME280;23794;48.234;8.344;2023-04-28T03:22:46;94042.69;;;9.51;79.61
37972;BME280;23794;48.234;8.344;2023-04-28T03:25:13;94043.09;;;9.46;80.81
37972;BME280;23794;48.234;8.344;2023-04-28T03:27:46;94043.84;;;9.50;79.91
37972;BME280;23794;48.234;8.344;2023-04-28T03:30:13;94040.75;;;9.52;79.83
37972;BME280;23794;48.234;8.344;2023-04-28T03:32:39;94042.69;;;9.51;81.34
37972;BME280;23794;48.234;8.344;2023-04-28T03:35:07;94034.13;;;9.49;81.51
37972;BME280;23794;48.234;8.344;2023-04-28T03:37:37;94025.50;;;9.54;81.51
37972;BME280;23794;48.234;8.344;2023-04-28T03:40:05;94031.41;;;9.45;81.80
37972;BME280;23794;48.234;8.344;2023-04-28T03:42:46;94025.84;;;9.60;80.99
37972;BME280;23794;48.234;8.344;2023-04-28T03:45:21;94014.53;;;9.58;80.89
37972;BME280;23794;48.234;8.344;2023-04-28T03:47:48;94015.28;;;9.62;80.74
37972;BME280;23794;48.234;8.344;2023-04-28T03:50:14;94010.97;;;9.68;80.96
37972;BME280;23794;48.234;8.344;2023-04-28T03:52:41;94014.09;;;9.67;80.55
37972;BME280;23794;48.234;8.344;2023-04-28T03:55:08;94004.72;;;9.64;80.50
37972;BME280;23794;48.234;8.344;2023-04-28T03:57:35;93998.53;;;9.56;80.23
37972;BME280;23794;48.234;8.344;2023-04-28T04:00:02;93997.75;;;9.56;80.58
37972;BME280;23794;48.234;8.344;2023-04-28T04:02:30;93992.69;;;9.54;80.45
37972;BME280;23794;48.234;8.344;2023-04-28T04:04:56;93994.97;;;9.59;79.95
37972;BME280;23794;48.234;8.344;2023-04-28T04:07:23;93997.72;;;9.59;80.50
37972;BME280;23794;48.234;8.344;2023-04-28T04:09:50;93991.44;;;9.66;80.34
37972;BME280;23794;48.234;8.344;2023-04-28T04:12:17;93995.75;;;9.64;80.87
37972;BME280;23794;48.234;8.344;2023-04-28T04:14:44;93988.69;;;9.66;80.66
37972;BME280;23794;48.234;8.344;2023-04-28T04:17:11;93991.06;;;9.64;81.13
37972;BME280;23794;48.234;8.344;2023-04-28T04:19:37;93989.13;;;9.65;80.41
37972;BME280;23794;48.234;8.344;2023-04-28T04:22:04;93989.47;;;9.67;81.54
37972;BME280;23794;48.234;8.344;2023-04-28T04:24:31;93985.16;;;9.69;80.65
37972;BME280;23794;48.234;8.344;2023-04-28T04:26:57;93990.63;;;9.69;81.02
37972;BME280;23794;48.234;8.344;2023-04-28T04:29:31;93992.16;;;9.74;80.44
37972;BME280;23794;48.234;8.344;2023-04-28T04:32:01;93984.34;;;9.76;80.40
37972;BME280;23794;48.234;8.344;2023-04-28T04:34:27;93982.41;;;9.69;80.68
37972;BME280;23794;48.234;8.344;2023-04-28T04:36:54;93986.41;;;9.61;81.49
37972;BME280;23794;48.234;8.344;2023-04-28T04:39:21;93983.28;;;9.59;81.37
37972;BME280;23794;48.234;8.344;2023-04-28T04:41:47;93980.94;;;9.57;81.37
37972;BME280;23794;48.234;8.344;2023-04-28T04:44:43;93989.47;;;9.67;80.48
37972;BME280;23794;48.234;8.344;2023-04-28T04:47:22;93990.63;;;9.66;81.85
37972;BME280;23794;48.234;8.344;2023-04-28T04:49:49;93986.72;;;9.67;81.87
37972;BME280;23794;48.234;8.344;2023-04-28T04:52:16;93994.09;;;9.81;81.37
37972;BME280;23794;48.234;8.344;2023-04-28T04:54:44;93997.19;;;9.83;81.01
37972;BME280;23794;48.234;8.344;2023-04-28T04:57:12;93988.94;;;9.90;80.27
37972;BME280;23794;48.234;8.344;2023-04-28T04:59:58;93986.25;;;9.83;81.37
37972;BME280;23794;48.234;8.344;2023-04-28T05:02:24;93983.47;;;9.90;80.95
37972;BME280;23794;48.234;8.344;2023-04-28T05:04:51;93987.38;;;9.89;81.37
37972;BME280;23794;48.234;8.344;2023-04-28T05:07:21;93990.44;;;9.98;81.07
37972;BME280;23794;48.234;8.344;2023-04-28T05:09:47;93994.38;;;9.97;80.74
37972;BME280;23794;48.234;8.344;2023-04-28T05:12:14;93992.81;;;9.96;81.25
37972;BME280;23794;48.234;8.344;2023-04-28T05:14:41;93992.78;;;10.00;81.08
37972;BME280;23794;48.234;8.344;2023-04-28T05:17:09;93990.75;;;10.07;81.11
37972;BME280;23794;48.234;8.344;2023-04-28T05:19:38;93992.75;;;10.03;80.83
37972;BME280;23794;48.234;8.344;2023-04-28T05:22:04;93988.41;;;10.06;80.34
37972;BME280;23794;48.234;8.344;2023-04-28T05:24:35;93982.94;;;10.06;80.33
37972;BME280;23794;48.234;8.344;2023-04-28T05:27:01;93982.16;;;10.09;80.71
37972;BME280;23794;48.234;8.344;2023-04-28T05:29:28;93971.88;;;10.20;80.91
37972;BME280;23794;48.234;8.344;2023-04-28T05:31:55;93981.59;;;10.29;80.28
37972;BME280;23794;48.234;8.344;2023-04-28T05:34:22;93979.94;;;10.38;79.85
37972;BME280;23794;48.234;8.344;2023-04-28T05:36:50;93978.34;;;10.41;80.04
37972;BME280;23794;48.234;8.344;2023-04-28T05:39:22;93979.03;;;10.52;80.15
37972;BME280;23794;48.234;8.344;2023-04-28T05:41:49;93981.28;;;10.61;80.29
37972;BME280;23794;48.234;8.344;2023-04-28T05:44:16;93984.06;;;10.57;79.92
37972;BME280;23794;48.234;8.344;2023-04-28T05:46:44;93993.06;;;10.58;79.63
37972;BME280;23794;48.234;8.344;2023-04-28T05:49:11;93990.72;;;10.56;79.23
37972;BME280;23794;48.234;8.344;2023-04-28T05:51:38;93995.81;;;10.58;79.75
37972;BME280;23794;48.234;8.344;2023-04-28T05:54:04;93987.56;;;10.62;79.31
37972;BME280;23794;48.234;8.344;2023-04-28T05:56:36;93988.75;;;10.61;79.38
37972;BME280;23794;48.234;8.344;2023-04-28T05:59:03;93987.22;;;10.56;80.16
37972;BME280;23794;48.234;8.344;2023-04-28T06:01:30;93975.03;;;10.61;79.91
37972;BME280;23794;48.234;8.344;2023-04-28T06:03:57;93978.84;;;10.70;80.09
37972;BME280;23794;48.234;8.344;2023-04-28T06:06:24;93983.06;;;10.79;79.54
37972;BME280;23794;48.234;8.344;2023-04-28T06:08:53;93986.63;;;10.76;79.55
37972;BME280;23794;48.234;8.344;2023-04-28T06:11:19;93980.25;;;10.86;79.52
37972;BME280;23794;48.234;8.344;2023-04-28T06:13:49;93978.69;;;10.85;79.20
37972;BME280;23794;48.234;8.344;2023-04-28T06:16:17;93987.00;;;10.78;79.67
37972;BME280;23794;48.234;8.344;2023-04-28T06:18:44;93989.69;;;10.81;80.18
37972;BME280;23794;48.234;8.344;2023-04-28T06:21:15;93991.56;;;10.92;79.72
37972;BME280;23794;48.234;8.344;2023-04-28T06:23:42;93984.47;;;10.94;79.53
37972;BME280;23794;48.234;8.344;2023-04-28T06:26:09;93991.13;;;10.97;79.63
37972;BME280;23794;48.234;8.344;2023-04-28T06:28:38;93990.66;;;11.02;79.91
37972;BME280;23794;48.234;8.344;2023-04-28T06:31:06;93991.75;;;11.12;79.21
37972;BME280;23794;48.234;8.344;2023-04-28T06:33:32;93985.41;;;11.18;79.24
37972;BME280;23794;48.234;8.344;2023-04-28T06:35:59;93985.31;;;11.26;79.79
37972;BME280;23794;48.234;8.344;2023-04-28T06:38:26;93987.88;;;11.40;79.64
37972;BME280;23794;48.234;8.344;2023-04-28T06:40:53;93979.06;;;11.56;79.36
37972;BME280;23794;48.234;8.344;2023-04-28T06:43:20;93974.88;;;11.75;78.28
37972;BME280;23794;48.234;8.344;2023-04-28T06:45:59;93967.25;;;11.87;78.98
37972;BME280;23794;48.234;8.344;2023-04-28T06:48:26;93978.31;;;12.07;79.19
37972;BME280;23794;48.234;8.344;2023-04-28T06:50:53;93980.28;;;12.30;78.81
37972;BME280;23794;48.234;8.344;2023-04-28T06:53:21;93976.50;;;12.47;78.71
37972;BME280;23794;48.234;8.344;2023-04-28T06:55:47;93975.97;;;12.56;78.77
37972;BME280;23794;48.234;8.344;2023-04-28T06:58:14;93971.25;;;12.57;78.78
37972;BME280;23794;48.234;8.344;2023-04-28T07:00:41;93973.69;;;12.51;78.78
37972;BME280;23794;48.234;8.344;2023-04-28T07:03:08;93974.34;;;12.35;79.43
37972;BME280;23794;48.234;8.344;2023-04-28T07:05:35;93973.28;;;12.29;79.82
37972;BME280;23794;48.234;8.344;2023-04-28T07:08:02;93986.22;;;12.28;80.46
37972;BME280;23794;48.234;8.344;2023-04-28T07:10:29;93983.59;;;12.21;79.89
37972;BME280;23794;48.234;8.344;2023-04-28T07:12:55;93987.88;;;12.22;79.91
37972;BME280;23794;48.234;8.344;2023-04-28T07:15:22;93994.31;;;12.12;80.25
37972;BME280;23794;48.234;8.344;2023-04-28T07:17:49;93992.47;;;12.05;80.42
37972;BME280;23794;48.234;8.344;2023-04-28T07:20:16;93993.78;;;11.97;80.48
37972;BME280;23794;48.234;8.344;2023-04-28T07:22:43;93992.75;;;11.87;80.76
37972;BME280;23794;48.234;8.344;2023-04-28T07:25:09;94002.16;;;11.86;80.77
37972;BME280;23794;48.234;8.344;2023-04-28T07:27:36;94013.28;;;11.75;80.31
37972;BME280;23794;48.234;8.344;2023-04-28T07:30:04;94016.03;;;11.75;80.57
37972;BME280;23794;48.234;8.344;2023-04-28T07:32:51;94010.84;;;11.81;80.35
37972;BME280;23794;48.234;8.344;2023-04-28T07:35:17;94014.84;;;11.76;80.78
37972;BME280;23794;48.234;8.344;2023-04-28T07:37:44;94004.97;;;11.82;81.03
37972;BME280;23794;48.234;8.344;2023-04-28T07:40:11;94013.13;;;11.86;81.04
37972;BME280;23794;48.234;8.344;2023-04-28T07:42:37;94010.69;;;11.92;81.03
37972;BME280;23794;48.234;8.344;2023-04-28T07:45:04;94012.19;;;11.96;81.21
37972;BME280;23794;48.234;8.344;2023-04-28T07:47:31;94010.28;;;11.93;81.06
37972;BME280;23794;48.234;8.344;2023-04-28T07:49:57;94008.19;;;12.01;81.15
37972;BME280;23794;48.234;8.344;2023-04-28T07:52:26;94008.16;;;12.05;81.17
37972;BME280;23794;48.234;8.344;2023-04-28T07:54:52;94021.16;;;12.28;80.77
37972;BME280;23794;48.234;8.344;2023-04-28T07:57:20;94016.16;;;12.46;80.80
37972;BME280;23794;48.234;8.344;2023-04-28T07:59:47;94020.47;;;12.47;80.05
37972;BME280;23794;48.234;8.344;2023-04-28T08:02:13;94016.47;;;12.52;80.00
37972;BME280;23794;48.234;8.344;2023-04-28T08:04:40;94020.94;;;12.66;79.85
37972;BME280;23794;48.234;8.344;2023-04-28T08:07:10;94015.84;;;12.65;79.81
37972;BME280;23794;48.234;8.344;2023-04-28T08:09:36;94011.97;;;12.62;79.55
37972;BME280;23794;48.234;8.344;2023-04-28T08:12:03;94009.16;;;12.66;79.89
37972;BME280;23794;48.234;8.344;2023-04-28T08:14:30;94011.53;;;12.87;79.17
37972;BME280;23794;48.234;8.344;2023-04-28T08:16:57;94012.56;;;12.97;79.49
37972;BME280;23794;48.234;8.344;2023-04-28T08:19:23;94021.28;;;13.12;79.01
37972;BME280;23794;48.234;8.344;2023-04-28T08:21:50;94015.38;;;13.34;78.51
37972;BME280;23794;48.234;8.344;2023-04-28T08:24:17;94024.50;;;13.31;78.90
37972;BME280;23794;48.234;8.344;2023-04-28T08:26:44;94030.91;;;13.44;77.91
37972;BME280;23794;48.234;8.344;2023-04-28T08:29:11;94035.97;;;13.46;77.66
37972;BME280;23794;48.234;8.344;2023-04-28T08:31:38;94038.50;;;13.36;77.88
37972;BME280;23794;48.234;8.344;2023-04-28T08:34:05;94046.22;;;13.25;77.77
37972;BME280;23794;48.234;8.344;2023-04-28T08:36:33;94054.53;;;13.21;77.90
37972;BME280;23794;48.234;8.344;2023-04-28T08:39:01;94046.72;;;13.20;77.60
37972;BME280;23794;48.234;8.344;2023-04-28T08:41:37;94068.09;;;13.08;77.88
37972;BME280;23794;48.234;8.344;2023-04-28T08:44:08;94062.75;;;13.01;78.11
37972;BME280;23794;48.234;8.344;2023-04-28T08:46:39;94076.25;;;12.92;78.46
37972;BME280;23794;48.234;8.344;2023-04-28T08:49:14;94070.69;;;12.95;78.79
37972;BME280;23794;48.234;8.344;2023-04-28T08:51:49;94078.56;;;12.93;78.77
37972;BME280;23794;48.234;8.344;2023-04-28T08:54:17;94075.72;;;13.01;78.26
37972;BME280;23794;48.234;8.344;2023-04-28T08:56:53;94085.25;;;13.16;78.42
37972;BME280;23794;48.234;8.344;2023-04-28T08:59:23;94087.88;;;13.23;78.01
37972;BME280;23794;48.234;8.344;2023-04-28T09:01:53;94083.16;;;13.24;78.09
37972;BME280;23794;48.234;8.344;2023-04-28T09:04:20;94077.53;;;13.31;77.83
37972;BME280;23794;48.234;8.344;2023-04-28T09:06:47;94075.47;;;13.35;77.26
37972;BME280;23794;48.234;8.344;2023-04-28T09:09:21;94078.88;;;13.43;77.77
37972;BME280;23794;48.234;8.344;2023-04-28T09:12:00;94069.06;;;13.62;77.18
37972;BME280;23794;48.234;8.344;2023-04-28T09:14:30;94055.47;;;13.75;77.01
37972;BME280;23794;48.234;8.344;2023-04-28T09:16:58;94059.13;;;13.88;76.89
37972;BME280;23794;48.234;8.344;2023-04-28T09:19:32;94051.44;;;14.16;76.11
37972;BME280;23794;48.234;8.344;2023-04-28T09:21:59;94048.00;;;14.29;75.52
37972;BME280;23794;48.234;8.344;2023-04-28T09:24:33;94056.53;;;14.51;75.72
37972;BME280;23794;48.234;8.344;2023-04-28T09:27:01;94057.84;;;14.63;74.74
37972;BME280;23794;48.234;8.344;2023-04-28T09:29:28;94059.38;;;14.64;75.34
37972;BME280;23794;48.234;8.344;2023-04-28T09:32:12;94074.34;;;14.46;74.38
37972;BME280;23794;48.234;8.344;2023-04-28T09:34:47;94070.75;;;14.49;75.10
37972;BME280;23794;48.234;8.344;2023-04-28T09:37:18;94070.50;;;14.44;75.47
37972;BME280;23794;48.234;8.344;2023-04-28T09:39:47;94076.53;;;14.55;74.48
37972;BME280;23794;48.234;8.344;2023-04-28T09:42:42;94078.34;;;14.78;74.97
37972;BME280;23794;48.234;8.344;2023-04-28T09:45:14;94088.69;;;14.58;74.18
37972;BME280;23794;48.234;8.344;2023-04-28T09:47:43;94075.75;;;14.55;74.56
37972;BME280;23794;48.234;8.344;2023-04-28T09:50:12;94089.09;;;14.56;74.18
37972;BME280;23794;48.234;8.344;2023-04-28T09:52:44;94083.81;;;14.45;74.58
37972;BME280;23794;48.234;8.344;2023-04-28T09:55:14;94092.09;;;14.29;74.28
37972;BME280;23794;48.234;8.344;2023-04-28T09:57:43;94082.84;;;14.02;75.11
37972;BME280;23794;48.234;8.344;2023-04-28T10:00:10;94087.22;;;14.16;75.65
37972;BME280;23794;48.234;8.344;2023-04-28T10:02:37;94093.09;;;14.18;73.62
37972;BME280;23794;48.234;8.344;2023-04-28T10:05:07;94094.13;;;14.25;75.14
37972;BME280;23794;48.234;8.344;2023-04-28T10:07:35;94087.06;;;14.24;75.20
37972;BME280;23794;48.234;8.344;2023-04-28T10:10:02;94085.06;;;14.08;75.17
37972;BME280;23794;48.234;8.344;2023-04-28T10:12:31;94093.63;;;13.93;75.78
37972;BME280;23794;48.234;8.344;2023-04-28T10:14:58;94092.13;;;14.09;75.90
37972;BME280;23794;48.234;8.344;2023-04-28T10:17:25;94099.94;;;14.30;75.26
37972;BME280;23794;48.234;8.344;2023-04-28T10:19:53;94090.69;;;14.37;75.09
37972;BME280;23794;48.234;8.344;2023-04-28T10:22:56;94086.50;;;14.49;74.77
37972;BME280;23794;48.234;8.344;2023-04-28T10:25:27;94095.25;;;14.27;74.78
37972;BME280;23794;48.234;8.344;2023-04-28T10:27:56;94091.69;;;14.47;74.99
37972;BME280;23794;48.234;8.344;2023-04-28T10:30:25;94084.78;;;14.72;75.17
37972;BME280;23794;48.234;8.344;2023-04-28T10:40:35;94089.34;;;14.45;75.15
37972;BME280;23794;48.234;8.344;2023-04-28T10:43:02;94093.16;;;14.51;75.30
37972;BME280;23794;48.234;8.344;2023-04-28T10:48:15;94083.84;;;14.78;74.98
37972;BME280;23794;48.234;8.344;2023-04-28T10:56:21;94078.09;;;15.94;69.83
37972;BME280;23794;48.234;8.344;2023-04-28T10:58:54;94085.75;;;16.16;70.13
37972;BME280;23794;48.234;8.344;2023-04-28T11:06:23;94077.91;;;14.96;72.03
37972;BME280;23794;48.234;8.344;2023-04-28T11:08:58;94091.53;;;14.71;74.06
37972;BME280;23794;48.234;8.344;2023-04-28T11:11:32;94092.75;;;14.69;74.00
37972;BME280;23794;48.234;8.344;2023-04-28T11:19:26;94090.41;;;15.47;72.47
37972;BME280;23794;48.234;8.344;2023-04-28T11:21:55;94074.13;;;15.66;72.40
37972;BME280;23794;48.234;8.344;2023-04-28T11:24:23;94085.72;;;15.60;71.70
37972;BME280;23794;48.234;8.344;2023-04-28T11:27:05;94073.84;;;15.76;72.17
37972;BME280;23794;48.234;8.344;2023-04-28T11:29:39;94084.22;;;16.15;70.61
37972;BME280;23794;48.234;8.344;2023-04-28T11:32:08;94074.06;;;16.37;70.86
37972;BME280;23794;48.234;8.344;2023-04-28T11:34:36;94071.84;;;16.32;70.86
37972;BME280;23794;48.234;8.344;2023-04-28T11:37:03;94079.22;;;16.22;70.85
37972;BME280;23794;48.234;8.344;2023-04-28T11:39:33;94079.22;;;16.22;69.88
37972;BME280;23794;48.234;8.344;2023-04-28T11:42:04;94072.84;;;16.38;70.19
37972;BME280;23794;48.234;8.344;2023-04-28T11:44:34;94067.22;;;16.42;68.84
37972;BME280;23794;48.234;8.344;2023-04-28T11:47:02;94074.94;;;16.47;69.12
37972;BME280;23794;48.234;8.344;2023-04-28T11:49:50;94066.75;;;16.56;68.67
37972;BME280;23794;48.234;8.344;2023-04-28T11:52:17;94069.72;;;16.75;68.37
37972;BME280;23794;48.234;8.344;2023-04-28T11:54:53;94068.47;;;16.89;67.43
37972;BME280;23794;48.234;8.344;2023-04-28T11:57:21;94065.25;;;16.90;68.17
37972;BME280;23794;48.234;8.344;2023-04-28T11:59:49;94058.09;;;16.80;68.28
37972;BME280;23794;48.234;8.344;2023-04-28T12:02:26;94059.22;;;16.57;66.63
37972;BME280;23794;48.234;8.344;2023-04-28T12:04:55;94058.56;;;16.66;68.29
37972;BME280;23794;48.234;8.344;2023-04-28T12:07:23;94060.47;;;16.43;67.85
37972;BME280;23794;48.234;8.344;2023-04-28T12:10:11;94057.03;;;16.13;68.82
37972;BME280;23794;48.234;8.344;2023-04-28T12:12:39;94058.25;;;16.25;69.56
37972;BME280;23794;48.234;8.344;2023-04-28T12:15:19;94064.00;;;16.56;69.74
37972;BME280;23794;48.234;8.344;2023-04-28T12:17:48;94061.97;;;16.70;69.04
37972;BME280;23794;48.234;8.344;2023-04-28T12:20:36;94063.09;;;17.20;66.84
37972;BME280;23794;48.234;8.344;2023-04-28T12:23:04;94061.59;;;17.42;67.84
37972;BME280;23794;48.234;8.344;2023-04-28T12:25:32;94055.44;;;17.37;65.87
37972;BME280;23794;48.234;8.344;2023-04-28T12:28:08;94063.69;;;17.15;66.20
37972;BME280;23794;48.234;8.344;2023-04-28T12:30:36;94053.88;;;17.36;64.49
37972;BME280;23794;48.234;8.344;2023-04-28T12:33:05;94046.16;;;17.53;67.53
37972;BME280;23794;48.234;8.344;2023-04-28T12:35:46;94048.94;;;17.76;65.50
37972;BME280;23794;48.234;8.344;2023-04-28T12:38:14;94044.25;;;18.17;63.95
37972;BME280;23794;48.234;8.344;2023-04-28T12:40:42;94046.75;;;18.24;63.88
37972;BME280;23794;48.234;8.344;2023-04-28T12:43:08;94035.72;;;18.34;63.83
37972;BME280;23794;48.234;8.344;2023-04-28T12:45:35;94040.00;;;18.25;63.42
37972;BME280;23794;48.234;8.344;2023-04-28T12:48:04;94046.13;;;18.20;63.53
37972;BME280;23794;48.234;8.344;2023-04-28T12:50:31;94046.81;;;17.80;64.15
37972;BME280;23794;48.234;8.344;2023-04-28T12:52:58;94051.09;;;17.59;65.25
37972;BME280;23794;48.234;8.344;2023-04-28T12:55:25;94053.50;;;17.47;65.74
37972;BME280;23794;48.234;8.344;2023-04-28T12:57:53;94046.16;;;17.53;65.70
37972;BME280;23794;48.234;8.344;2023-04-28T13:00:20;94046.47;;;17.33;66.58
37972;BME280;23794;48.234;8.344;2023-04-28T13:02:49;94050.91;;;17.31;65.25
37972;BME280;23794;48.234;8.344;2023-04-28T13:05:18;94049.28;;;17.20;67.01
37972;BME280;23794;48.234;8.344;2023-04-28T13:07:45;94044.91;;;17.32;65.53
37972;BME280;23794;48.234;8.344;2023-04-28T13:10:12;94046.31;;;17.15;65.54
37972;BME280;23794;48.234;8.344;2023-04-28T13:12:39;94046.13;;;17.09;67.12
37972;BME280;23794;48.234;8.344;2023-04-28T13:15:07;94041.84;;;16.82;69.01
37972;BME280;23794;48.234;8.344;2023-04-28T13:17:34;94043.66;;;16.50;69.45
37972;BME280;23794;48.234;8.344;2023-04-28T13:20:00;94035.47;;;16.21;70.32
37972;BME280;23794;48.234;8.344;2023-04-28T13:22:29;94031.38;;;16.00;70.80
37972;BME280;23794;48.234;8.344;2023-04-28T13:24:55;94031.03;;;15.98;70.40
37972;BME280;23794;48.234;8.344;2023-04-28T13:27:23;94029.59;;;15.93;71.44
37972;BME280;23794;48.234;8.344;2023-04-28T13:29:49;94031.16;;;15.94;70.10
37972;BME280;23794;48.234;8.344;2023-04-28T13:32:16;94013.56;;;16.01;70.72
37972;BME280;23794;48.234;8.344;2023-04-28T13:34:42;94005.06;;;16.34;70.63
37972;BME280;23794;48.234;8.344;2023-04-28T13:37:10;94009.69;;;16.50;70.32